createdAt,value
2022-08-03T00:00:06.282Z,16.21
2022-08-03T00:01:29.362Z,16.19
2022-08-03T00:02:32.443Z,16.20
2022-08-03T00:03:35.687Z,16.21
2022-08-03T00:04:41.289Z,16.20
2022-08-03T00:06:04.395Z,16.19
2022-08-03T00:07:08.036Z,16.17
2022-08-03T00:08:11.661Z,16.16
2022-08-03T00:09:15.700Z,16.17
2022-08-03T00:10:18.875Z,16.16
2022-08-03T00:11:22.212Z,16.14
2022-08-03T00:12:25.470Z,16.12
2022-08-03T00:13:28.457Z,16.11
2022-08-03T00:14:31.615Z,16.10
2022-08-03T00:15:34.688Z,16.11
2022-08-03T00:16:37.936Z,16.11
2022-08-03T00:17:53.214Z,16.08
2022-08-03T00:18:57.256Z,16.05
2022-08-03T00:20:00.281Z,16.03
2022-08-03T00:21:04.866Z,16.02
2022-08-03T00:22:08.079Z,16.01
2022-08-03T00:23:11.659Z,15.99
2022-08-03T00:24:14.730Z,15.96
2022-08-03T00:25:18.341Z,15.94
2022-08-03T00:26:22.102Z,15.91
2022-08-03T00:27:25.444Z,15.89
2022-08-03T00:28:28.740Z,15.87
2022-08-03T00:29:32.753Z,15.86
2022-08-03T00:30:36.393Z,15.85
2022-08-03T00:31:44.952Z,15.83
2022-08-03T00:33:02.663Z,15.85
2022-08-03T00:34:06.193Z,15.83
2022-08-03T00:35:14.777Z,15.84
2022-08-03T00:36:32.160Z,15.84
2022-08-03T00:37:41.229Z,15.84
2022-08-03T00:38:45.170Z,15.84
2022-08-03T00:39:48.341Z,15.84
2022-08-03T00:40:51.518Z,15.84
2022-08-03T00:41:54.757Z,15.84
2022-08-03T00:43:00.032Z,15.83
2022-08-03T00:44:03.236Z,15.81
2022-08-03T00:45:06.903Z,15.81
2022-08-03T00:46:10.048Z,15.78
2022-08-03T00:47:15.381Z,15.81
2022-08-03T00:48:29.427Z,15.80
2022-08-03T00:49:37.707Z,15.76
2022-08-03T00:50:42.926Z,15.72
2022-08-03T00:51:46.009Z,15.69
2022-08-03T00:52:50.089Z,15.64
2022-08-03T00:53:53.232Z,15.63
2022-08-03T00:54:56.794Z,15.61
2022-08-03T00:56:00.286Z,15.55
2022-08-03T00:57:03.947Z,15.59
2022-08-03T00:58:08.706Z,15.59
2022-08-03T00:59:12.350Z,15.60
2022-08-03T01:00:22.934Z,15.60
2022-08-03T01:01:27.008Z,15.60
2022-08-03T01:02:36.271Z,15.58
2022-08-03T01:03:39.444Z,15.56
2022-08-03T01:04:42.805Z,15.54
2022-08-03T01:05:58.481Z,15.53
2022-08-03T01:07:22.022Z,15.51
2022-08-03T01:08:53.175Z,15.46
2022-08-03T01:10:33.488Z,15.41
2022-08-03T01:12:01.079Z,15.37
2022-08-03T01:14:01.945Z,15.33
2022-08-03T01:14:50.457Z,15.32
2022-08-03T01:16:37.074Z,15.30
2022-08-03T01:18:02.155Z,15.25
2022-08-03T01:19:41.435Z,15.23
2022-08-03T01:20:49.877Z,15.19
2022-08-03T01:22:00.161Z,15.21
2022-08-03T01:23:42.020Z,15.20
2022-08-03T01:25:03.489Z,15.17
2022-08-03T01:26:25.587Z,15.19
2022-08-03T01:27:54.703Z,15.19
2022-08-03T01:29:35.193Z,15.19
2022-08-03T01:30:41.140Z,15.18
2022-08-03T01:32:59.860Z,15.17
2022-08-03T01:33:31.284Z,15.12
2022-08-03T01:34:43.942Z,15.11
2022-08-03T01:35:53.793Z,15.10
2022-08-03T01:37:03.620Z,15.09
2022-08-03T01:38:22.616Z,15.07
2022-08-03T01:39:31.150Z,15.08
2022-08-03T01:40:37.994Z,15.06
2022-08-03T01:42:01.398Z,15.05
2022-08-03T01:43:08.197Z,15.03
2022-08-03T01:44:28.580Z,15.02
2022-08-03T01:45:34.629Z,15.03
2022-08-03T01:46:39.341Z,15.04
2022-08-03T01:47:44.749Z,15.05
2022-08-03T01:48:49.401Z,15.06
2022-08-03T01:49:54.421Z,15.06
2022-08-03T01:50:59.587Z,15.08
2022-08-03T01:52:05.482Z,15.08
2022-08-03T01:53:10.798Z,15.07
2022-08-03T01:54:14.869Z,15.07
2022-08-03T01:55:22.310Z,15.06
2022-08-03T01:56:27.542Z,15.07
2022-08-03T01:57:31.235Z,15.06
2022-08-03T01:58:36.314Z,14.96
2022-08-03T01:59:45.038Z,15.05
2022-08-03T02:00:50.641Z,15.02
2022-08-03T02:02:29.143Z,14.98
2022-08-03T02:03:24.253Z,14.93
2022-08-03T02:04:28.588Z,14.78
2022-08-03T02:05:33.151Z,14.88
2022-08-03T02:07:01.178Z,14.85
2022-08-03T02:08:05.358Z,14.81
2022-08-03T02:09:09.180Z,14.79
2022-08-03T02:10:14.334Z,14.78
2022-08-03T02:11:17.572Z,14.78
2022-08-03T02:12:22.462Z,14.77
2022-08-03T02:13:38.753Z,14.75
2022-08-03T02:14:50.456Z,14.74
2022-08-03T02:15:55.394Z,14.74
2022-08-03T02:16:59.603Z,14.75
2022-08-03T02:18:06.433Z,14.76
2022-08-03T02:19:15.047Z,14.76
2022-08-03T02:20:19.672Z,14.77
2022-08-03T02:21:57.326Z,14.78
2022-08-03T02:22:49.775Z,14.78
2022-08-03T02:23:52.910Z,14.75
2022-08-03T02:24:56.394Z,14.70
2022-08-03T02:26:03.614Z,14.71
2022-08-03T02:27:18.936Z,14.67
2022-08-03T02:28:26.689Z,14.64
2022-08-03T02:29:39.515Z,14.61
2022-08-03T02:30:46.940Z,14.59
2022-08-03T02:32:00.956Z,14.56
2022-08-03T02:33:06.149Z,14.55
2022-08-03T02:34:16.054Z,14.54
2022-08-03T02:35:24.650Z,14.52
2022-08-03T02:36:30.064Z,14.50
2022-08-03T02:37:37.862Z,14.49
2022-08-03T02:38:51.526Z,14.48
2022-08-03T02:40:04.743Z,14.30
2022-08-03T02:41:14.193Z,14.46
2022-08-03T02:42:24.840Z,14.45
2022-08-03T02:43:57.666Z,14.46
2022-08-03T02:44:57.215Z,14.46
2022-08-03T02:46:00.499Z,14.46
2022-08-03T02:47:11.374Z,14.46
2022-08-03T02:48:18.918Z,14.47
2022-08-03T02:49:42.138Z,14.47
2022-08-03T02:50:48.716Z,14.45
2022-08-03T02:51:53.819Z,14.43
2022-08-03T02:53:03.769Z,14.44
2022-08-03T02:54:09.682Z,14.38
2022-08-03T02:55:15.450Z,14.44
2022-08-03T02:56:20.154Z,14.44
2022-08-03T02:57:25.837Z,14.45
2022-08-03T02:58:29.840Z,14.40
2022-08-03T02:59:33.851Z,14.32
2022-08-03T03:00:40.445Z,14.23
2022-08-03T03:01:46.658Z,14.20
2022-08-03T03:02:53.478Z,14.19
2022-08-03T03:03:57.789Z,14.17
2022-08-03T03:05:51.745Z,14.18
2022-08-03T03:06:27.400Z,14.09
2022-08-03T03:07:51.352Z,14.17
2022-08-03T03:08:59.784Z,14.16
2022-08-03T03:10:05.928Z,14.16
2022-08-03T03:11:10.669Z,14.16
2022-08-03T03:12:15.486Z,14.17
2022-08-03T03:13:21.467Z,14.17
2022-08-03T03:14:33.948Z,14.17
2022-08-03T03:15:46.609Z,14.16
2022-08-03T03:16:52.036Z,14.17
2022-08-03T03:18:01.994Z,14.18
2022-08-03T03:19:08.769Z,14.18
2022-08-03T03:20:12.675Z,14.20
2022-08-03T03:21:19.213Z,14.21
2022-08-03T03:22:23.633Z,14.22
2022-08-03T03:23:28.475Z,14.22
2022-08-03T03:24:32.410Z,14.24
2022-08-03T03:25:36.589Z,14.24
2022-08-03T03:26:42.529Z,14.25
2022-08-03T03:27:49.422Z,14.25
2022-08-03T03:28:54.004Z,14.25
2022-08-03T03:29:58.402Z,14.26
2022-08-03T03:31:05.011Z,14.24
2022-08-03T03:32:09.253Z,14.27
2022-08-03T03:33:16.343Z,14.27
2022-08-03T03:34:21.112Z,14.25
2022-08-03T03:35:25.609Z,14.26
2022-08-03T03:36:28.646Z,14.29
2022-08-03T03:37:31.803Z,14.30
2022-08-03T03:38:35.265Z,14.30
2022-08-03T03:39:38.447Z,14.29
2022-08-03T03:40:42.340Z,14.27
2022-08-03T03:41:45.926Z,14.27
2022-08-03T03:42:51.189Z,14.26
2022-08-03T03:43:56.983Z,14.25
2022-08-03T03:45:04.767Z,14.25
2022-08-03T03:46:07.933Z,14.25
2022-08-03T03:47:11.158Z,14.23
2022-08-03T03:48:16.650Z,14.23
2022-08-03T03:49:19.974Z,14.23
2022-08-03T03:50:24.244Z,14.23
2022-08-03T03:51:27.548Z,14.25
2022-08-03T03:52:34.324Z,14.25
2022-08-03T03:53:37.499Z,14.27
2022-08-03T03:54:42.489Z,14.27
2022-08-03T03:55:59.472Z,14.27
2022-08-03T03:57:05.603Z,14.26
2022-08-03T03:58:08.890Z,14.27
2022-08-03T03:59:12.143Z,14.28
2022-08-03T04:00:16.719Z,14.28
2022-08-03T04:01:20.470Z,14.28
2022-08-03T04:02:26.787Z,14.27
2022-08-03T04:03:31.233Z,14.27
2022-08-03T04:04:54.135Z,14.24
2022-08-03T04:06:16.816Z,14.25
2022-08-03T04:07:39.613Z,14.25
2022-08-03T04:09:01.377Z,14.24
2022-08-03T04:10:48.673Z,14.27
2022-08-03T04:11:53.767Z,14.27
2022-08-03T04:12:59.373Z,14.28
2022-08-03T04:14:17.018Z,14.28
2022-08-03T04:15:23.573Z,14.25
2022-08-03T04:16:39.713Z,14.23
2022-08-03T04:17:47.167Z,14.21
2022-08-03T04:18:55.061Z,14.21
2022-08-03T04:20:01.530Z,14.20
2022-08-03T04:21:15.792Z,14.24
2022-08-03T04:22:24.336Z,14.25
2022-08-03T04:23:30.204Z,14.27
2022-08-03T04:24:38.552Z,14.25
2022-08-03T04:25:44.202Z,14.30
2022-08-03T04:26:52.790Z,14.32
2022-08-03T04:28:29.922Z,14.33
2022-08-03T04:29:24.584Z,14.36
2022-08-03T04:30:28.834Z,14.37
2022-08-03T04:31:33.146Z,14.42
2022-08-03T04:32:39.320Z,14.42
2022-08-03T04:33:46.238Z,14.43
2022-08-03T04:34:49.591Z,14.43
2022-08-03T04:36:01.610Z,14.46
2022-08-03T04:37:12.798Z,14.48
2022-08-03T04:38:19.876Z,14.50
2022-08-03T04:39:28.199Z,14.53
2022-08-03T04:40:35.069Z,14.55
2022-08-03T04:42:02.087Z,14.59
2022-08-03T04:43:03.690Z,14.61
2022-08-03T04:44:08.885Z,14.64
2022-08-03T04:45:13.341Z,14.67
2022-08-03T04:46:17.224Z,14.69
2022-08-03T04:47:21.468Z,14.71
2022-08-03T04:48:25.038Z,14.72
2022-08-03T04:49:30.248Z,14.74
2022-08-03T04:50:34.280Z,14.75
2022-08-03T04:51:40.703Z,14.77
2022-08-03T04:52:44.031Z,14.79
2022-08-03T04:53:48.150Z,14.80
2022-08-03T04:54:51.352Z,14.82
2022-08-03T04:55:54.480Z,14.84
2022-08-03T04:56:57.732Z,14.86
2022-08-03T04:58:02.707Z,14.88
2022-08-03T04:59:06.258Z,14.89
2022-08-03T05:00:10.053Z,14.91
2022-08-03T05:01:13.443Z,14.93
2022-08-03T05:02:16.811Z,14.93
2022-08-03T05:03:24.236Z,14.95
2022-08-03T05:04:28.140Z,14.97
2022-08-03T05:05:34.931Z,14.98
2022-08-03T05:06:55.051Z,15.00
2022-08-03T05:07:59.152Z,15.02
2022-08-03T05:09:04.510Z,15.04
2022-08-03T05:10:16.150Z,15.05
2022-08-03T05:11:24.803Z,15.03
2022-08-03T05:12:32.332Z,15.07
2022-08-03T05:13:36.086Z,15.08
2022-08-03T05:14:39.483Z,15.11
2022-08-03T05:15:42.868Z,15.14
2022-08-03T05:16:48.933Z,15.17
2022-08-03T05:17:54.658Z,15.21
2022-08-03T05:18:57.775Z,15.24
2022-08-03T05:20:01.530Z,15.27
2022-08-03T05:21:07.585Z,15.30
2022-08-03T05:22:10.781Z,15.31
2022-08-03T05:23:16.605Z,15.37
2022-08-03T05:24:19.772Z,15.42
2022-08-03T05:25:27.347Z,15.45
2022-08-03T05:26:30.651Z,15.50
2022-08-03T05:27:33.949Z,15.53
2022-08-03T05:28:37.032Z,15.57
2022-08-03T05:29:44.009Z,15.61
2022-08-03T05:30:47.463Z,15.64
2022-08-03T05:31:52.762Z,15.66
2022-08-03T05:32:56.001Z,15.71
2022-08-03T05:33:59.234Z,15.74
2022-08-03T05:35:57.525Z,15.78
2022-08-03T05:36:26.165Z,15.81
2022-08-03T05:37:29.252Z,15.85
2022-08-03T05:38:34.960Z,15.89
2022-08-03T05:39:41.330Z,15.91
2022-08-03T05:40:56.948Z,15.96
2022-08-03T05:42:01.129Z,16.01
2022-08-03T05:43:04.428Z,16.04
2022-08-03T05:44:07.549Z,16.08
2022-08-03T05:45:27.920Z,16.12
2022-08-03T05:46:31.784Z,16.17
2022-08-03T05:47:34.886Z,16.21
2022-08-03T05:48:38.585Z,16.26
2022-08-03T05:49:41.807Z,16.31
2022-08-03T05:50:44.964Z,16.36
2022-08-03T05:51:48.103Z,16.41
2022-08-03T05:53:03.269Z,16.47
2022-08-03T05:54:06.463Z,16.51
2022-08-03T05:55:11.010Z,16.56
2022-08-03T05:56:16.275Z,16.60
2022-08-03T05:57:19.563Z,16.65
2022-08-03T05:58:25.183Z,16.69
2022-08-03T05:59:38.467Z,16.74
2022-08-03T06:00:42.348Z,16.79
2022-08-03T06:01:45.648Z,16.84
2022-08-03T06:02:48.918Z,16.88
2022-08-03T06:03:52.685Z,16.93
2022-08-03T06:04:55.881Z,16.98
2022-08-03T06:06:00.250Z,17.03
2022-08-03T06:07:03.930Z,17.08
2022-08-03T06:08:07.004Z,17.14
2022-08-03T06:09:13.640Z,17.18
2022-08-03T06:10:36.061Z,17.25
2022-08-03T06:11:41.618Z,17.29
2022-08-03T06:12:48.100Z,17.34
2022-08-03T06:13:51.370Z,17.34
2022-08-03T06:14:54.431Z,17.42
2022-08-03T06:15:57.750Z,17.48
2022-08-03T06:17:00.954Z,17.53
2022-08-03T06:18:04.157Z,17.58
2022-08-03T06:19:07.450Z,17.64
2022-08-03T06:20:11.344Z,17.70
2022-08-03T06:21:16.156Z,17.76
2022-08-03T06:22:19.975Z,17.82
2022-08-03T06:23:54.532Z,17.88
2022-08-03T06:24:53.585Z,17.95
2022-08-03T06:25:57.690Z,18.02
2022-08-03T06:27:00.837Z,18.09
2022-08-03T06:28:05.364Z,18.17
2022-08-03T06:29:11.495Z,18.26
2022-08-03T06:30:18.090Z,18.34
2022-08-03T06:31:33.174Z,18.44
2022-08-03T06:32:52.161Z,18.55
2022-08-03T06:34:31.610Z,18.76
2022-08-03T06:35:19.435Z,19.15
2022-08-03T06:36:22.657Z,19.50
2022-08-03T06:37:27.323Z,19.84
2022-08-03T06:38:30.610Z,20.16
2022-08-03T06:39:33.886Z,20.45
2022-08-03T06:40:40.294Z,20.70
2022-08-03T06:41:44.791Z,20.94
2022-08-03T06:42:48.328Z,21.16
2022-08-03T06:44:04.025Z,21.33
2022-08-03T06:45:09.325Z,21.60
2022-08-03T06:46:12.394Z,21.83
2022-08-03T06:47:15.603Z,22.01
2022-08-03T06:48:18.614Z,22.16
2022-08-03T06:49:21.814Z,22.30
2022-08-03T06:50:26.316Z,22.41
2022-08-03T06:52:04.907Z,22.56
2022-08-03T06:52:55.310Z,22.76
2022-08-03T06:53:58.324Z,22.89
2022-08-03T06:55:01.545Z,23.01
2022-08-03T06:56:05.892Z,23.11
2022-08-03T06:57:11.991Z,23.21
2022-08-03T06:58:15.100Z,23.32
2022-08-03T07:00:08.543Z,23.42
2022-08-03T07:00:42.094Z,23.52
2022-08-03T07:01:45.589Z,23.59
2022-08-03T07:02:57.669Z,23.67
2022-08-03T07:04:01.481Z,23.74
2022-08-03T07:05:05.128Z,23.78
2022-08-03T07:06:08.255Z,23.85
2022-08-03T07:07:11.321Z,23.93
2022-08-03T07:08:15.507Z,24.01
2022-08-03T07:09:18.645Z,24.08
2022-08-03T07:10:21.783Z,24.13
2022-08-03T07:11:25.151Z,24.20
2022-08-03T07:12:30.038Z,24.27
2022-08-03T07:13:33.149Z,24.36
2022-08-03T07:14:39.311Z,24.39
2022-08-03T07:15:55.756Z,24.46
2022-08-03T07:16:59.554Z,24.54
2022-08-03T07:18:02.851Z,24.60
2022-08-03T07:19:06.125Z,24.64
2022-08-03T07:20:09.435Z,24.64
2022-08-03T07:21:13.080Z,24.70
2022-08-03T07:22:16.648Z,24.77
2022-08-03T07:23:20.164Z,24.81
2022-08-03T07:24:23.199Z,24.83
2022-08-03T07:25:26.449Z,24.91
2022-08-03T07:26:29.719Z,24.95
2022-08-03T07:27:33.936Z,24.98
2022-08-03T07:28:37.768Z,25.01
2022-08-03T07:29:40.872Z,25.05
2022-08-03T07:30:44.055Z,25.12
2022-08-03T07:31:47.859Z,25.13
2022-08-03T07:32:50.936Z,25.17
2022-08-03T07:33:54.084Z,25.18
2022-08-03T07:35:00.789Z,25.19
2022-08-03T07:36:04.920Z,25.26
2022-08-03T07:37:08.337Z,25.35
2022-08-03T07:38:11.412Z,25.39
2022-08-03T07:39:17.442Z,25.44
2022-08-03T07:40:21.078Z,25.46
2022-08-03T07:41:24.415Z,25.49
2022-08-03T07:42:29.433Z,25.51
2022-08-03T07:43:33.154Z,25.53
2022-08-03T07:44:36.197Z,25.55
2022-08-03T07:45:39.486Z,25.60
2022-08-03T07:46:44.259Z,25.62
2022-08-03T07:47:53.447Z,25.74
2022-08-03T07:48:57.303Z,25.76
2022-08-03T07:50:00.582Z,25.83
2022-08-03T07:51:05.850Z,25.86
2022-08-03T07:52:28.394Z,25.96
2022-08-03T07:53:32.051Z,25.94
2022-08-03T07:54:43.919Z,25.93
2022-08-03T07:55:46.995Z,25.99
2022-08-03T07:56:50.132Z,26.03
2022-08-03T07:58:09.489Z,26.08
2022-08-03T07:59:12.582Z,26.17
2022-08-03T08:00:19.966Z,26.19
2022-08-03T08:01:23.796Z,26.24
2022-08-03T08:02:27.476Z,26.23
2022-08-03T08:03:30.705Z,26.29
2022-08-03T08:04:53.747Z,26.36
2022-08-03T08:05:57.097Z,26.42
2022-08-03T08:07:00.345Z,26.45
2022-08-03T08:08:04.483Z,26.47
2022-08-03T08:09:11.754Z,26.49
2022-08-03T08:10:15.029Z,26.54
2022-08-03T08:11:18.400Z,26.66
2022-08-03T08:12:21.573Z,26.74
2022-08-03T08:13:24.984Z,26.83
2022-08-03T08:14:28.090Z,26.84
2022-08-03T08:15:33.135Z,26.86
2022-08-03T08:16:36.630Z,26.90
2022-08-03T08:17:57.430Z,26.98
2022-08-03T08:19:02.245Z,26.99
2022-08-03T08:20:06.559Z,26.96
2022-08-03T08:21:12.280Z,26.87
2022-08-03T08:22:15.724Z,26.93
2022-08-03T08:23:41.642Z,26.99
2022-08-03T08:24:48.687Z,27.06
2022-08-03T08:25:54.294Z,27.18
2022-08-03T08:27:01.430Z,27.18
2022-08-03T08:28:30.758Z,27.18
2022-08-03T08:29:28.089Z,27.18
2022-08-03T08:30:32.980Z,27.25
2022-08-03T08:31:36.050Z,27.19
2022-08-03T08:32:39.230Z,27.17
2022-08-03T08:34:03.176Z,27.20
2022-08-03T08:35:08.077Z,27.24
2022-08-03T08:36:15.405Z,27.30
2022-08-03T08:37:20.133Z,27.37
2022-08-03T08:38:23.636Z,27.38
2022-08-03T08:39:26.660Z,27.36
2022-08-03T08:40:30.214Z,27.34
2022-08-03T08:41:35.095Z,27.43
2022-08-03T08:42:51.890Z,27.48
2022-08-03T08:44:04.450Z,27.49
2022-08-03T08:45:09.579Z,27.46
2022-08-03T08:46:23.590Z,27.49
2022-08-03T08:47:50.856Z,27.59
2022-08-03T08:48:54.831Z,27.59
2022-08-03T08:50:09.621Z,27.64
2022-08-03T08:51:19.726Z,27.66
2022-08-03T08:52:31.904Z,27.79
2022-08-03T08:53:37.614Z,27.83
2022-08-03T08:54:44.848Z,27.80
2022-08-03T08:55:59.548Z,27.79
2022-08-03T08:57:16.472Z,27.76
2022-08-03T08:58:33.063Z,27.83
2022-08-03T08:59:49.051Z,27.87
2022-08-03T09:00:53.317Z,27.87
2022-08-03T09:01:59.474Z,27.86
2022-08-03T09:03:02.618Z,27.98
2022-08-03T09:04:09.738Z,27.95
2022-08-03T09:05:15.949Z,27.96
2022-08-03T09:06:19.060Z,28.01
2022-08-03T09:07:22.319Z,28.12
2022-08-03T09:08:26.695Z,28.20
2022-08-03T09:10:10.582Z,28.21
2022-08-03T09:10:54.144Z,28.20
2022-08-03T09:12:20.054Z,28.16
2022-08-03T09:13:22.276Z,28.16
2022-08-03T09:14:39.473Z,28.26
2022-08-03T09:16:15.509Z,28.28
2022-08-03T09:17:19.174Z,28.22
2022-08-03T09:18:30.550Z,28.25
2022-08-03T09:19:37.108Z,28.28
2022-08-03T09:20:45.449Z,28.30
2022-08-03T09:22:13.341Z,28.35
2022-08-03T09:23:58.989Z,28.57
2022-08-03T09:25:22.856Z,28.75
2022-08-03T09:26:30.162Z,28.86
2022-08-03T09:27:47.000Z,28.92
2022-08-03T09:29:13.777Z,28.93
2022-08-03T09:30:34.519Z,28.96
2022-08-03T09:31:45.205Z,29.01
2022-08-03T09:32:48.844Z,29.00
2022-08-03T09:33:59.963Z,29.08
2022-08-03T09:35:05.848Z,29.16
2022-08-03T09:36:36.654Z,29.20
2022-08-03T09:38:11.978Z,29.17
2022-08-03T09:39:07.216Z,29.17
2022-08-03T09:40:33.745Z,29.13
2022-08-03T09:41:47.138Z,29.10
2022-08-03T09:42:59.078Z,29.14
2022-08-03T09:44:02.439Z,29.22
2022-08-03T09:45:06.754Z,29.31
2022-08-03T09:46:09.912Z,29.44
2022-08-03T09:47:15.705Z,29.42
2022-08-03T09:48:27.319Z,29.50
2022-08-03T09:49:30.490Z,29.55
2022-08-03T09:51:14.207Z,29.59
2022-08-03T09:52:38.198Z,29.70
2022-08-03T09:53:59.178Z,29.60
2022-08-03T09:56:04.991Z,29.62
2022-08-03T09:56:44.186Z,29.74
2022-08-03T09:57:47.265Z,29.92
2022-08-03T09:58:51.585Z,29.95
2022-08-03T10:00:08.342Z,30.05
2022-08-03T10:01:23.890Z,30.13
2022-08-03T10:02:28.517Z,30.08
2022-08-03T10:04:02.746Z,30.04
2022-08-03T10:05:01.785Z,30.00
2022-08-03T10:06:20.151Z,29.97
2022-08-03T10:07:25.160Z,29.90
2022-08-03T10:08:28.278Z,29.88
2022-08-03T10:09:31.453Z,29.92
2022-08-03T10:10:44.020Z,30.07
2022-08-03T10:11:47.774Z,30.09
2022-08-03T10:12:54.084Z,30.00
2022-08-03T10:14:01.553Z,30.03
2022-08-03T10:15:06.524Z,30.04
2022-08-03T10:16:21.712Z,29.97
2022-08-03T10:17:28.394Z,29.97
2022-08-03T10:18:31.681Z,29.92
2022-08-03T10:19:34.752Z,29.83
2022-08-03T10:20:43.551Z,29.79
2022-08-03T10:22:01.959Z,29.81
2022-08-03T10:23:06.432Z,29.89
2022-08-03T10:24:16.547Z,29.92
2022-08-03T10:25:19.893Z,29.96
2022-08-03T10:26:27.214Z,30.08
2022-08-03T10:27:37.936Z,30.15
2022-08-03T10:28:53.228Z,30.10
2022-08-03T10:30:04.105Z,30.06
2022-08-03T10:31:11.927Z,29.98
2022-08-03T10:32:30.754Z,30.04
2022-08-03T10:33:50.310Z,29.91
2022-08-03T10:35:19.719Z,29.81
2022-08-03T10:36:27.643Z,29.89
2022-08-03T10:37:37.108Z,30.01
2022-08-03T10:38:55.393Z,30.18
2022-08-03T10:40:00.628Z,30.32
2022-08-03T10:41:07.075Z,30.38
2022-08-03T10:42:15.698Z,30.38
2022-08-03T10:43:23.232Z,30.44
2022-08-03T10:44:32.806Z,30.57
2022-08-03T10:45:41.849Z,30.52
2022-08-03T10:46:51.571Z,30.57
2022-08-03T10:47:57.582Z,30.69
2022-08-03T10:49:01.616Z,30.78
2022-08-03T10:50:06.168Z,30.72
2022-08-03T10:51:09.791Z,30.64
2022-08-03T10:52:33.825Z,30.64
2022-08-03T10:53:56.443Z,30.65
2022-08-03T10:55:51.650Z,30.68
2022-08-03T10:57:14.686Z,30.74
2022-08-03T10:58:36.764Z,30.75
2022-08-03T10:59:50.956Z,30.81
2022-08-03T11:00:54.354Z,30.83
2022-08-03T11:02:00.785Z,30.77
2022-08-03T11:03:16.878Z,30.75
2022-08-03T11:04:21.857Z,30.85
2022-08-03T11:05:29.698Z,30.84
2022-08-03T11:06:37.298Z,30.76
2022-08-03T11:07:47.876Z,30.77
2022-08-03T11:09:11.247Z,30.78
2022-08-03T11:10:44.781Z,30.88
2022-08-03T11:11:51.676Z,31.05
2022-08-03T11:13:07.778Z,31.05
2022-08-03T11:14:16.934Z,31.15
2022-08-03T11:15:33.618Z,31.23
2022-08-03T11:16:54.704Z,31.22
2022-08-03T11:18:11.011Z,31.19
2022-08-03T11:19:18.303Z,31.14
2022-08-03T11:20:48.538Z,31.14
2022-08-03T11:21:51.798Z,31.11
2022-08-03T11:22:57.352Z,31.20
2022-08-03T11:24:04.335Z,31.28
2022-08-03T11:25:09.487Z,31.28
2022-08-03T11:26:33.299Z,31.25
2022-08-03T11:27:36.497Z,31.23
2022-08-03T11:28:47.680Z,31.28
2022-08-03T11:30:06.057Z,31.26
2022-08-03T11:31:48.713Z,31.19
2022-08-03T11:32:58.830Z,31.26
2022-08-03T11:34:13.659Z,31.25
2022-08-03T11:35:19.193Z,31.23
2022-08-03T11:36:32.786Z,31.19
2022-08-03T11:38:09.120Z,31.17
2022-08-03T11:39:17.012Z,31.18
2022-08-03T11:40:56.190Z,31.26
2022-08-03T11:41:59.302Z,31.24
2022-08-03T11:43:07.499Z,31.30
2022-08-03T11:44:40.207Z,31.45
2022-08-03T11:46:02.575Z,31.59
2022-08-03T11:47:08.364Z,31.53
2022-08-03T11:48:18.754Z,31.43
2022-08-03T11:49:24.055Z,31.39
2022-08-03T11:50:27.244Z,31.39
2022-08-03T11:51:34.093Z,31.49
2022-08-03T11:52:39.216Z,31.53
2022-08-03T11:53:44.261Z,31.56
2022-08-03T11:54:51.394Z,31.55
2022-08-03T11:56:02.100Z,31.53
2022-08-03T11:57:05.684Z,31.54
2022-08-03T11:59:16.561Z,31.56
2022-08-03T11:59:35.740Z,31.64
2022-08-03T12:00:40.655Z,31.77
2022-08-03T12:01:43.956Z,31.95
2022-08-03T12:02:58.518Z,32.00
2022-08-03T12:04:07.816Z,32.01
2022-08-03T12:05:10.957Z,32.04
2022-08-03T12:06:16.234Z,32.08
2022-08-03T12:07:24.982Z,32.09
2022-08-03T12:08:44.792Z,32.04
2022-08-03T12:10:16.279Z,32.09
2022-08-03T12:11:20.198Z,32.08
2022-08-03T12:12:23.324Z,32.07
2022-08-03T12:14:44.122Z,32.04
2022-08-03T12:15:02.929Z,32.04
2022-08-03T12:16:06.343Z,32.05
2022-08-03T12:17:09.451Z,32.07
2022-08-03T12:18:17.836Z,32.07
2022-08-03T12:19:20.859Z,32.04
2022-08-03T12:20:34.415Z,32.09
2022-08-03T12:21:56.849Z,32.16
2022-08-03T12:23:05.926Z,32.18
2022-08-03T12:24:09.548Z,32.16
2022-08-03T12:25:38.554Z,32.20
2022-08-03T12:26:58.449Z,32.24
2022-08-03T12:28:31.822Z,32.23
2022-08-03T12:29:41.281Z,32.14
2022-08-03T12:30:46.461Z,32.11
2022-08-03T12:31:49.743Z,31.99
2022-08-03T12:32:52.975Z,32.08
2022-08-03T12:34:00.417Z,32.16
2022-08-03T12:35:06.286Z,32.32
2022-08-03T12:36:10.645Z,32.41
2022-08-03T12:37:21.949Z,32.50
2022-08-03T12:38:26.037Z,32.61
2022-08-03T12:39:31.504Z,32.65
2022-08-03T12:40:37.658Z,32.64
2022-08-03T12:41:41.176Z,32.72
2022-08-03T12:42:44.288Z,32.88
2022-08-03T12:43:51.339Z,33.04
2022-08-03T12:44:54.672Z,33.14
2022-08-03T12:46:15.170Z,33.31
2022-08-03T12:47:18.956Z,33.41
2022-08-03T12:48:23.517Z,33.41
2022-08-03T12:49:46.484Z,33.25
2022-08-03T12:50:53.586Z,33.06
2022-08-03T12:52:05.289Z,32.96
2022-08-03T12:53:10.863Z,32.90
2022-08-03T12:54:24.675Z,32.82
2022-08-03T12:55:57.552Z,32.78
2022-08-03T12:57:02.636Z,32.77
2022-08-03T12:58:10.299Z,32.76
2022-08-03T12:59:40.542Z,32.78
2022-08-03T13:00:56.161Z,32.72
2022-08-03T13:02:00.167Z,32.70
2022-08-03T13:04:39.036Z,32.77
2022-08-03T13:05:45.772Z,32.75
2022-08-03T13:07:02.685Z,32.69
2022-08-03T13:08:18.685Z,32.62
2022-08-03T13:09:21.717Z,32.53
2022-08-03T13:10:30.112Z,32.61
2022-08-03T13:11:58.224Z,32.59
2022-08-03T13:13:05.925Z,32.58
2022-08-03T13:14:09.614Z,32.61
2022-08-03T13:15:18.395Z,32.69
2022-08-03T13:16:22.654Z,32.81
2022-08-03T13:17:27.031Z,33.00
2022-08-03T13:18:30.308Z,33.20
2022-08-03T13:19:38.170Z,33.23
2022-08-03T13:20:43.694Z,33.26
2022-08-03T13:21:53.362Z,33.32
2022-08-03T13:23:07.138Z,33.31
2022-08-03T13:24:19.380Z,33.30
2022-08-03T13:25:22.985Z,33.38
2022-08-03T13:26:26.071Z,33.42
2022-08-03T13:28:04.353Z,33.49
2022-08-03T13:28:56.610Z,33.63
2022-08-03T13:29:59.887Z,33.72
2022-08-03T13:31:03.869Z,33.71
2022-08-03T13:32:07.854Z,33.72
2022-08-03T13:33:11.454Z,33.71
2022-08-03T13:34:16.324Z,33.65
2022-08-03T13:35:21.740Z,33.66
2022-08-03T13:36:25.345Z,33.53
2022-08-03T13:37:33.184Z,33.56
2022-08-03T13:38:36.304Z,33.55
2022-08-03T13:39:58.299Z,33.62
2022-08-03T13:41:05.168Z,33.75
2022-08-03T13:42:08.906Z,33.87
2022-08-03T13:43:12.786Z,33.90
2022-08-03T13:44:29.191Z,33.95
2022-08-03T13:45:34.318Z,33.93
2022-08-03T13:46:37.815Z,33.84
2022-08-03T13:47:40.940Z,33.85
2022-08-03T13:48:45.882Z,33.85
2022-08-03T13:50:00.156Z,33.79
2022-08-03T13:51:11.948Z,33.73
2022-08-03T13:52:25.861Z,33.77
2022-08-03T13:53:28.886Z,33.76
2022-08-03T13:54:34.066Z,33.77
2022-08-03T13:55:37.165Z,33.72
2022-08-03T13:56:42.178Z,33.67
2022-08-03T13:58:02.614Z,33.56
2022-08-03T13:59:08.377Z,33.47
2022-08-03T14:00:12.385Z,33.39
2022-08-03T14:01:15.759Z,33.35
2022-08-03T14:02:18.879Z,33.34
2022-08-03T14:03:24.785Z,33.39
2022-08-03T14:04:27.959Z,33.46
2022-08-03T14:05:32.047Z,33.49
2022-08-03T14:06:35.444Z,33.57
2022-08-03T14:07:38.606Z,33.57
2022-08-03T14:08:41.709Z,33.65
2022-08-03T14:09:44.737Z,33.67
2022-08-03T14:10:47.762Z,33.63
2022-08-03T14:12:06.996Z,33.66
2022-08-03T14:13:17.595Z,33.68
2022-08-03T14:14:21.293Z,33.69
2022-08-03T14:15:24.527Z,33.77
2022-08-03T14:16:27.724Z,33.84
2022-08-03T14:17:49.620Z,33.83
2022-08-03T14:18:53.215Z,33.76
2022-08-03T14:19:56.319Z,33.63
2022-08-03T14:21:07.232Z,33.50
2022-08-03T14:22:11.204Z,33.50
2022-08-03T14:23:15.325Z,33.52
2022-08-03T14:24:18.505Z,33.51
2022-08-03T14:25:21.910Z,33.51
2022-08-03T14:26:25.040Z,33.60
2022-08-03T14:27:28.121Z,33.61
2022-08-03T14:28:31.448Z,33.61
2022-08-03T14:29:37.175Z,33.65
2022-08-03T14:30:40.337Z,33.72
2022-08-03T14:32:11.343Z,33.83
2022-08-03T14:33:06.827Z,33.90
2022-08-03T14:34:09.924Z,33.96
2022-08-03T14:35:13.122Z,33.97
2022-08-03T14:36:17.069Z,34.00
2022-08-03T14:37:22.585Z,33.97
2022-08-03T14:38:25.911Z,33.92
2022-08-03T14:39:58.342Z,33.92
2022-08-03T14:40:53.297Z,33.95
2022-08-03T14:41:56.492Z,34.02
2022-08-03T14:42:59.571Z,34.11
2022-08-03T14:44:02.688Z,34.10
2022-08-03T14:45:20.034Z,34.15
2022-08-03T14:46:23.907Z,34.14
2022-08-03T14:47:26.926Z,34.18
2022-08-03T14:50:32.076Z,34.26